• Join FlightAware (Why Join?)
  • Login
  • US Flag 
01:53AM EDT


 

Airport Tracker/Info


-or-


 

Live Flight TrackerFlight Track Log ✈ UAL3776 ✈ 26-Apr-2013 ✈ KIAD - KRDU

Flight Track Log - Related Links

Times and Time Zones

All times are in EDT time to prevent confusion due to time zone crossing. See the UAL3776 flight status page for this flight to view local times or setup timezone preferences in your user account.

Time Position Orientation Groundspeed Altitude Reporting Facility
EDT Latitude Longitude Course Direction KTS MPH feet Rate Location/Type
03:57PM 38.9333 -77.5167 201° Southwest 176 203 1,700  Level Potomac TRACON
03:58PM 38.9167 -77.5833 252° West 226 260 3,700 2,700 Climbing Potomac TRACON
03:58PM 38.8772 -77.6369 227° Southwest 262 302 6,700 3,000 Climbing Washington Center
03:59PM 38.8125 -77.6403 182° South 249 287 9,200 1,620 Climbing Washington Center
04:00PM 38.5262 -77.6491 185° South  Level Estimated
04:00PM 38.7314 -77.6275 173° South 268 308 10,000  Level Washington Center
04:01PM 38.4281 -77.5810 151° Southeast  Level FlightAware Approximate
04:01PM 38.6614 -77.5803 152° Southeast 274 315 11,000  Level Washington Center
04:02PM 38.3239 -77.6321 201° Southwest  Level Estimated
04:03PM 38.5078 -77.5364 167° South 284 327 15,000  Level Washington Center
04:04PM 38.4178 -77.5633 193° South 315 362 17,300 2,100 Climbing Washington Center
04:05PM 38.3269 -77.6269 209° Southwest 325 374 19,300 1,800 Climbing Washington Center
04:06PM 38.2486 -77.6936 214° Southwest 335 386 21,000 1,320 Climbing Washington Center
04:07PM 38.1661 -77.7681 215° Southwest 354 407 22,000 480 Climbing Washington Center
04:08PM 38.0772 -77.8419 213° Southwest 372 428 22,000  Level Washington Center
04:09PM 37.9881 -77.9156 213° Southwest 379 436 22,000  Level Washington Center
04:10PM 37.8969 -77.9969 215° Southwest 394 453 22,000  Level Washington Center
04:11PM 37.8033 -78.0756 214° Southwest 404 465 22,000  Level Washington Center
04:12PM 37.7206 -78.1436 213° Southwest 404 465 22,000  Level Washington Center
04:13PM 37.6250 -78.2297 216° Southwest 398 458 22,000  Level Washington Center
04:14PM 37.5314 -78.3075 213° Southwest 398 458 22,000  Level Washington Center
04:15PM 37.4400 -78.3828 213° Southwest 404 465 22,000  Level Washington Center
04:16PM 37.3569 -78.4503 213° Southwest 404 465 22,000  Level Washington Center
04:17PM 37.2675 -78.5278 215° Southwest 404 465 22,000  Level Washington Center
04:18PM 37.1761 -78.6025 213° Southwest 404 465 22,000  Level Washington Center
04:19PM 37.0844 -78.6744 212° Southwest 404 465 22,000  Level Washington Center
04:20PM 36.9864 -78.7564 214° Southwest 404 465 22,000 -360 Level Washington Center
04:21PM 36.8947 -78.8331 214° Southwest 404 465 21,300 -1,620 Descending Washington Center
04:22PM 36.8072 -78.9047 213° Southwest 404 465 18,800 -2,340 Descending Washington Center
04:23PM 36.7217 -78.9736 213° Southwest 391 450 16,700 -2,400 Descending Washington Center
04:24PM 36.6353 -79.0086 198° South 367 422 14,100 -2,520 Descending Washington Center
04:25PM 36.5650 -78.9847 165° South 343 395 12,300 -2,520 Descending Washington Center
04:25PM 36.5422 -78.9814 173° South 329 379 11,600 -1,980 Descending Washington Center
04:26PM 36.4636 -78.9547 165° South 331 381 10,100 -960 Descending Washington Center
04:27PM 36.3911 -78.9361 168° South 311 358 10,000 -120 Descending Washington Center
04:27PM 36.3706 -78.9275 161° South 321 369 10,000 -720 Level Washington Center
04:28PM 36.3061 -78.9117 169° South 282 325 9,300 -960 Descending Washington Center
04:28PM 36.2939 -78.9061 160° South 303 349 9,100 -1,140 Descending Washington Center
04:29PM 36.2378 -78.8933 170° South 255 293 8,100 -660 Descending Washington Center
04:30PM 36.1758 -78.8753 167° South 238 274 8,000 -120 Descending Washington Center
04:30PM 36.1592 -78.8669 158° South 251 289 8,000  Level Washington Center
04:31PM 36.1094 -78.8547 169° South 239 275 8,000  Level Washington Center
04:31PM 36.0931 -78.8514 171° South 251 289 8,000  Level Washington Center
04:32PM 36.0411 -78.8414 171° South 248 285 8,000  Level Washington Center
04:32PM 36.0264 -78.8408 178° South 246 283 8,000  Level Washington Center
04:33PM 35.9803 -78.8467 186° South 242 278 8,000 -420 Level Washington Center
04:33PM 35.9614 -78.8561 202° Southwest 239 275 7,600 -1,440 Descending Washington Center
04:34PM 35.9272 -78.8856 215° Southwest 223 257 6,600 -1,620 Descending Washington Center
04:34PM 35.9119 -78.9028 222° Southwest 225 259 6,000 -1,680 Descending Washington Center
04:35PM 35.8861 -78.9350 225° Southwest 211 243 4,900 -1,860 Descending Washington Center